createdAt,value
2022-10-03T00:05:24.414Z,8.48
2022-10-03T00:08:07.923Z,12.40
2022-10-03T00:10:55.396Z,13.20
2022-10-03T00:13:44.265Z,10.73
2022-10-03T00:20:56.387Z,12.20
2022-10-03T00:23:42.239Z,14.55
2022-10-03T00:26:50.814Z,7.47
2022-10-03T00:29:24.074Z,9.85
2022-10-03T00:32:26.598Z,11.70
2022-10-03T00:35:30.339Z,9.13
2022-10-03T00:43:09.865Z,12.87
2022-10-03T00:46:02.528Z,9.77
2022-10-03T00:53:11.087Z,18.75
2022-10-03T00:56:17.975Z,13.43
2022-10-03T00:59:10.843Z,14.32
2022-10-03T01:01:49.137Z,10.88
2022-10-03T01:04:16.461Z,12.40
2022-10-03T01:07:22.542Z,13.70
2022-10-03T01:09:55.988Z,10.95
2022-10-03T01:13:00.202Z,12.30
2022-10-03T01:15:53.427Z,11.77
2022-10-03T01:18:55.498Z,13.63
2022-10-03T01:21:25.904Z,16.48
2022-10-03T01:24:05.908Z,15.13
2022-10-03T01:26:33.053Z,13.05
2022-10-03T01:30:11.315Z,15.50
2022-10-03T01:32:59.836Z,12.10
2022-10-03T01:35:53.935Z,10.85
2022-10-03T01:38:39.382Z,13.57
2022-10-03T01:41:42.562Z,15.35
2022-10-03T01:44:24.647Z,17.15
2022-10-03T01:47:35.125Z,16.02
2022-10-03T01:50:38.683Z,12.63
2022-10-03T01:53:58.654Z,15.95
2022-10-03T01:57:01.890Z,15.05
2022-10-03T02:00:08.087Z,19.85
2022-10-03T02:02:55.645Z,18.52
2022-10-03T02:05:55.387Z,11.00
2022-10-03T02:09:01.087Z,16.00
2022-10-03T02:12:53.492Z,17.55
2022-10-03T02:16:08.218Z,19.90
2022-10-03T02:19:27.568Z,18.33
2022-10-03T02:21:57.399Z,11.25
2022-10-03T02:25:30.331Z,25.55
2022-10-03T02:28:17.616Z,16.20
2022-10-03T02:35:10.155Z,11.38
2022-10-03T02:37:54.857Z,15.75
2022-10-03T02:43:46.189Z,13.15
2022-10-03T02:46:34.434Z,12.82
2022-10-03T02:49:38.554Z,18.60
2022-10-03T02:52:42.283Z,16.45
2022-10-03T02:55:50.170Z,16.98
2022-10-03T02:58:18.410Z,16.35
2022-10-03T03:01:32.171Z,16.33
2022-10-03T03:04:20.784Z,12.40
2022-10-03T03:07:31.212Z,12.50
2022-10-03T03:10:39.106Z,14.85
2022-10-03T03:13:59.317Z,12.30
2022-10-03T03:17:08.913Z,15.40
2022-10-03T03:20:06.840Z,20.17
2022-10-03T03:22:46.154Z,32.70
2022-10-03T03:26:31.418Z,21.15
2022-10-03T03:29:10.745Z,17.58
2022-10-03T03:32:21.925Z,14.18
2022-10-03T03:35:24.600Z,15.70
2022-10-03T03:42:10.371Z,16.10
2022-10-03T03:44:57.268Z,20.60
2022-10-03T03:47:43.465Z,14.07
2022-10-03T03:54:52.279Z,16.27
2022-10-03T03:57:44.212Z,17.98
2022-10-03T04:00:21.856Z,13.73
2022-10-03T04:03:01.485Z,15.32
2022-10-03T04:06:01.155Z,19.33
2022-10-03T04:08:47.999Z,21.90
2022-10-03T04:20:11.322Z,13.35
2022-10-03T04:23:46.118Z,18.17
2022-10-03T04:26:32.411Z,16.33
2022-10-03T04:33:43.423Z,13.85
2022-10-03T04:36:41.735Z,15.63
2022-10-03T04:39:21.097Z,18.17
2022-10-03T04:42:03.333Z,14.45
2022-10-03T04:45:29.204Z,14.02
2022-10-03T04:48:34.093Z,14.80
2022-10-03T04:51:20.720Z,13.25
2022-10-03T04:54:03.535Z,22.38
2022-10-03T04:56:50.246Z,16.20
2022-10-03T04:59:59.775Z,9.05
2022-10-03T05:03:32.380Z,19.95
2022-10-03T05:06:03.244Z,14.70
2022-10-03T05:08:54.061Z,16.55
2022-10-03T05:11:54.621Z,18.33
2022-10-03T05:18:50.171Z,17.10
2022-10-03T05:21:48.750Z,14.90
2022-10-03T05:24:31.900Z,17.70
2022-10-03T05:27:24.016Z,18.95
2022-10-03T05:30:19.379Z,16.80
2022-10-03T05:33:27.557Z,17.77
2022-10-03T05:36:21.192Z,16.85
2022-10-03T05:39:29.111Z,14.93
2022-10-03T05:42:26.762Z,15.48
2022-10-03T05:45:29.485Z,18.08
2022-10-03T05:48:34.290Z,13.27
2022-10-03T05:51:42.073Z,17.63
2022-10-03T05:54:27.770Z,15.77
2022-10-03T05:57:41.302Z,18.10
2022-10-03T06:00:21.952Z,14.60
2022-10-03T06:03:09.831Z,12.48
2022-10-03T06:05:51.118Z,14.57
2022-10-03T06:08:44.403Z,15.93
2022-10-03T06:11:32.862Z,14.73
2022-10-03T06:14:55.071Z,17.05
2022-10-03T06:17:43.342Z,17.27
2022-10-03T06:20:40.442Z,11.73
2022-10-03T06:23:53.090Z,14.20
2022-10-03T06:26:39.319Z,14.20
2022-10-03T06:29:28.257Z,14.50
2022-10-03T06:32:16.495Z,17.95
2022-10-03T06:35:28.251Z,15.98
2022-10-03T06:38:10.699Z,10.93
2022-10-03T06:41:21.737Z,13.98
2022-10-03T06:44:12.102Z,15.57
2022-10-03T06:47:27.752Z,12.82
2022-10-03T06:50:19.890Z,13.88
2022-10-03T06:53:19.279Z,13.48
2022-10-03T06:56:32.355Z,10.63
2022-10-03T06:59:04.391Z,13.57
2022-10-03T07:02:01.585Z,12.93
2022-10-03T07:04:44.089Z,9.80
2022-10-03T07:07:56.414Z,9.55
2022-10-03T07:10:45.556Z,11.68
2022-10-03T07:13:51.331Z,10.20
2022-10-03T07:17:06.443Z,11.23
2022-10-03T07:19:53.369Z,13.30
2022-10-03T07:22:50.081Z,10.43
2022-10-03T07:25:20.087Z,10.80
2022-10-03T07:28:09.925Z,10.95
2022-10-03T07:31:28.974Z,9.40
2022-10-03T07:34:16.549Z,8.38
2022-10-03T07:37:34.282Z,7.82
2022-10-03T07:40:09.436Z,11.18
2022-10-03T07:42:54.580Z,8.60
2022-10-03T07:45:35.073Z,8.82
2022-10-03T07:48:23.803Z,9.98
2022-10-03T07:51:17.394Z,9.40
2022-10-03T07:54:21.844Z,12.73
2022-10-03T07:57:22.317Z,11.73
2022-10-03T08:00:14.602Z,6.72
2022-10-03T08:03:28.636Z,12.68
2022-10-03T08:06:21.579Z,11.95
2022-10-03T08:12:33.572Z,9.02
2022-10-03T08:15:16.704Z,6.38
2022-10-03T08:18:08.662Z,6.10
2022-10-03T08:20:55.451Z,10.63
2022-10-03T08:23:54.980Z,7.22
2022-10-03T08:26:28.546Z,10.35
2022-10-03T08:29:09.306Z,5.60
2022-10-03T08:31:54.484Z,5.13
2022-10-03T08:35:08.716Z,6.05
2022-10-03T08:37:59.642Z,9.27
2022-10-03T08:40:45.587Z,4.88
2022-10-03T08:43:35.794Z,5.03
2022-10-03T08:46:27.502Z,8.85
2022-10-03T08:49:12.291Z,6.10
2022-10-03T08:51:42.654Z,10.90
2022-10-03T08:54:40.296Z,5.38
2022-10-03T08:57:12.369Z,10.52
2022-10-03T09:00:04.692Z,9.75
2022-10-03T09:03:26.996Z,7.97
2022-10-03T09:06:01.581Z,8.18
2022-10-03T09:09:04.576Z,12.50
2022-10-03T09:11:46.323Z,6.47
2022-10-03T09:14:36.768Z,9.27
2022-10-03T09:17:31.655Z,8.32
2022-10-03T09:22:50.253Z,14.07
2022-10-03T09:25:20.876Z,9.38
2022-10-03T09:28:12.649Z,10.18
2022-10-03T09:30:58.758Z,8.80
2022-10-03T09:33:55.877Z,7.65
2022-10-03T09:36:50.632Z,8.10
2022-10-03T09:39:37.720Z,9.13
2022-10-03T09:42:28.481Z,6.82
2022-10-03T09:45:25.099Z,4.40
2022-10-03T09:48:16.029Z,7.50
2022-10-03T09:51:14.840Z,6.13
2022-10-03T09:54:08.852Z,9.43
2022-10-03T09:57:08.774Z,7.32
2022-10-03T10:00:01.054Z,4.50
2022-10-03T10:03:04.970Z,6.38
2022-10-03T10:08:38.172Z,7.78
2022-10-03T10:11:34.387Z,7.80
2022-10-03T10:14:24.668Z,6.18
2022-10-03T10:17:34.601Z,7.07
2022-10-03T10:20:20.130Z,10.27
2022-10-03T10:23:29.940Z,8.27
2022-10-03T10:26:29.324Z,4.28
2022-10-03T10:29:50.951Z,10.70
2022-10-03T10:32:38.343Z,6.10
2022-10-03T10:35:52.347Z,5.53
2022-10-03T10:38:50.552Z,5.18
2022-10-03T10:41:35.490Z,6.43
2022-10-03T10:44:33.624Z,7.70
2022-10-03T10:47:39.260Z,7.68
2022-10-03T10:50:35.325Z,7.82
2022-10-03T10:53:40.516Z,7.75
2022-10-03T10:56:35.118Z,7.35
2022-10-03T10:59:31.869Z,6.90
2022-10-03T11:02:23.243Z,6.50
2022-10-03T11:05:10.642Z,8.45
2022-10-03T11:08:15.100Z,8.18
2022-10-03T11:10:56.280Z,10.93
2022-10-03T11:13:56.751Z,5.43
2022-10-03T11:16:57.237Z,9.25
2022-10-03T11:19:43.061Z,8.25
2022-10-03T11:22:32.114Z,9.27
2022-10-03T11:25:23.975Z,9.82
2022-10-03T11:28:18.873Z,4.50
2022-10-03T11:30:56.595Z,8.93
2022-10-03T11:33:42.853Z,6.88
2022-10-03T11:36:44.178Z,9.55
2022-10-03T11:39:25.577Z,10.00
2022-10-03T11:42:28.619Z,12.70
2022-10-03T11:45:06.205Z,8.65
2022-10-03T11:47:53.386Z,9.85
2022-10-03T11:51:00.123Z,13.82
2022-10-03T11:53:36.780Z,10.80
2022-10-03T11:56:35.883Z,12.23
2022-10-03T11:59:34.972Z,9.27
2022-10-03T12:02:06.115Z,11.95
2022-10-03T12:04:38.978Z,11.30
2022-10-03T12:08:04.652Z,12.07
2022-10-03T12:10:40.963Z,10.07
2022-10-03T12:13:27.638Z,15.13
2022-10-03T12:16:00.248Z,10.48
2022-10-03T12:18:34.352Z,13.98
2022-10-03T12:21:09.584Z,13.23
2022-10-03T12:24:04.245Z,12.27
2022-10-03T12:26:49.668Z,8.40
2022-10-03T12:29:19.674Z,10.57
2022-10-03T12:32:26.220Z,7.13
2022-10-03T12:35:17.973Z,14.25
2022-10-03T12:38:03.817Z,13.57
2022-10-03T12:40:40.715Z,9.15
2022-10-03T12:43:09.008Z,9.30
2022-10-03T12:45:50.074Z,9.57
2022-10-03T12:48:46.097Z,9.77
2022-10-03T12:51:16.243Z,11.10
2022-10-03T12:54:01.919Z,10.98
2022-10-03T12:56:48.932Z,7.72
2022-10-03T13:00:15.850Z,12.63
2022-10-03T13:03:12.365Z,11.13
2022-10-03T13:06:09.610Z,10.23
2022-10-03T13:08:43.242Z,10.02
2022-10-03T13:11:38.618Z,11.55
2022-10-03T13:14:34.550Z,13.82
2022-10-03T13:17:36.343Z,14.90
2022-10-03T13:20:21.987Z,12.30
2022-10-03T13:23:03.371Z,9.48
2022-10-03T13:25:48.606Z,11.55
2022-10-03T13:28:47.549Z,14.23
2022-10-03T13:31:22.618Z,7.18
2022-10-03T13:34:04.198Z,10.55
2022-10-03T13:37:05.181Z,14.15
2022-10-03T13:39:42.640Z,10.30
2022-10-03T13:42:21.932Z,10.70
2022-10-03T13:44:55.646Z,8.63
2022-10-03T13:47:30.128Z,11.45
2022-10-03T13:49:59.347Z,15.57
2022-10-03T13:52:44.930Z,11.30
2022-10-03T13:55:21.697Z,11.88
2022-10-03T13:58:22.234Z,12.27
2022-10-03T14:01:13.918Z,9.55
2022-10-03T14:04:40.740Z,11.25
2022-10-03T14:07:33.841Z,14.35
2022-10-03T14:10:51.065Z,6.93
2022-10-03T14:13:24.024Z,10.43
2022-10-03T14:16:08.704Z,12.00
2022-10-03T14:19:03.395Z,9.00
2022-10-03T14:22:07.190Z,10.38
2022-10-03T14:24:54.691Z,10.10
2022-10-03T14:27:53.713Z,8.38
2022-10-03T14:30:24.334Z,13.82
2022-10-03T14:33:37.506Z,10.18
2022-10-03T14:36:34.887Z,8.18
2022-10-03T14:39:28.645Z,8.95
2022-10-03T14:41:55.736Z,11.15
2022-10-03T14:44:44.686Z,13.07
2022-10-03T14:47:16.216Z,9.10
2022-10-03T14:50:05.681Z,10.50
2022-10-03T14:53:02.539Z,9.52
2022-10-03T14:55:45.659Z,10.32
2022-10-03T14:58:21.960Z,11.77
2022-10-03T15:01:13.725Z,10.75
2022-10-03T15:03:55.777Z,10.25
2022-10-03T15:06:44.757Z,18.58
2022-10-03T15:09:22.679Z,11.38
2022-10-03T15:12:15.707Z,9.10
2022-10-03T15:14:55.107Z,11.95
2022-10-03T15:18:12.710Z,11.13
2022-10-03T15:20:42.825Z,9.45
2022-10-03T15:23:20.277Z,10.52
2022-10-03T15:25:54.041Z,11.32
2022-10-03T15:28:46.334Z,11.35
2022-10-03T15:31:36.241Z,10.18
2022-10-03T15:34:34.285Z,9.32
2022-10-03T15:37:18.549Z,10.07
2022-10-03T15:39:48.592Z,8.98
2022-10-03T15:42:29.233Z,8.07
2022-10-03T15:45:06.522Z,10.27
2022-10-03T15:47:44.186Z,14.73
2022-10-03T15:50:27.873Z,10.57
2022-10-03T15:53:08.165Z,13.43
2022-10-03T15:55:51.021Z,9.77
2022-10-03T15:58:27.944Z,12.05
2022-10-03T16:01:03.851Z,11.48
2022-10-03T16:03:50.280Z,10.65
2022-10-03T16:06:49.445Z,11.90
2022-10-03T16:09:22.462Z,11.20
2022-10-03T16:12:08.019Z,13.75
2022-10-03T16:14:45.155Z,14.95
2022-10-03T16:17:23.985Z,17.30
2022-10-03T16:20:00.100Z,12.32
2022-10-03T16:22:54.782Z,17.20
2022-10-03T16:25:37.562Z,12.95
2022-10-03T16:29:10.554Z,17.65
2022-10-03T16:31:49.250Z,16.38
2022-10-03T16:39:21.551Z,23.33
2022-10-03T16:41:53.441Z,22.75
2022-10-03T16:52:50.366Z,27.00
2022-10-03T17:04:39.684Z,14.40
2022-10-03T17:07:26.298Z,23.95
2022-10-03T17:23:16.850Z,11.93
2022-10-03T17:25:56.012Z,12.98
2022-10-03T18:16:36.705Z,18.48
2022-10-03T18:19:21.909Z,14.43
2022-10-03T18:22:21.096Z,14.30
2022-10-03T18:25:23.228Z,13.65
2022-10-03T18:28:27.867Z,17.30
2022-10-03T18:31:25.507Z,19.83
2022-10-03T18:47:20.349Z,14.02
2022-10-03T18:50:38.137Z,14.80
2022-10-03T18:53:38.942Z,12.43
2022-10-03T18:56:11.930Z,13.13
2022-10-03T19:03:16.800Z,10.23
2022-10-03T19:05:57.313Z,12.65
2022-10-03T19:13:22.590Z,12.07
2022-10-03T19:16:32.463Z,11.02
2022-10-03T20:05:32.603Z,8.52
2022-10-03T20:08:09.195Z,16.40
2022-10-03T20:15:25.777Z,12.63
2022-10-03T20:18:00.386Z,9.88
2022-10-03T20:39:25.661Z,11.52
2022-10-03T20:42:10.369Z,13.35
2022-10-03T21:07:06.255Z,15.35
2022-10-03T21:10:00.618Z,11.73
2022-10-03T21:16:53.911Z,9.80
2022-10-03T21:19:44.762Z,14.00
2022-10-03T21:35:40.854Z,11.07
2022-10-03T21:38:33.311Z,10.65
2022-10-03T21:54:27.158Z,12.27
2022-10-03T21:56:54.345Z,14.98
2022-10-03T22:00:01.887Z,11.93
2022-10-03T22:03:01.538Z,14.30
2022-10-03T22:18:13.602Z,12.32
2022-10-03T22:21:48.272Z,12.73
2022-10-03T22:24:50.581Z,15.50
2022-10-03T22:58:57.316Z,10.68
2022-10-03T23:01:25.636Z,13.65
2022-10-03T23:03:53.305Z,15.23
2022-10-03T23:06:49.946Z,10.98
2022-10-03T23:09:32.424Z,15.50
2022-10-03T23:12:12.936Z,16.27
2022-10-03T23:14:50.073Z,13.98
